Time;durP1;ratioP1;P1;durP2;ratioP2;P2;SDS_P1;SDS_P2;PMS_P1;PMS_P2;Temp;Humidity;BMP_temperature;BMP_pressure;BME280_temperature;BME280_humidity;BME280_pressure;Samples;Min_cycle;Max_cycle;Signal;HPM_P1;HPM_P2
2021/01/10 00:00:14;;;;;;;24.20;18.52;;;;;;;;;;4959784;28;20224;-81
2021/01/10 00:02:40;;;;;;;27.30;19.17;;;;;;;;;;4961634;28;20169;-84
2021/01/10 00:05:11;;;;;;;24.15;17.83;;;;;;;;;;4960851;29;20194;-82
2021/01/10 00:07:37;;;;;;;21.45;16.50;;;;;;;;;;4963424;29;20158;-82
2021/01/10 00:10:10;;;;;;;27.23;19.70;;;;;;;;;;4963474;29;20204;-81
2021/01/10 00:12:37;;;;;;;23.02;17.45;;;;;;;;;;4962802;29;20174;-81
2021/01/10 00:15:05;;;;;;;21.75;17.92;;;;;;;;;;4946462;28;20265;-82
2021/01/10 00:17:31;;;;;;;25.42;17.30;;;;;;;;;;4960319;28;20235;-83
2021/01/10 00:19:57;;;;;;;26.50;20.08;;;;;;;;;;4944954;28;20186;-82
2021/01/10 00:22:23;;;;;;;22.30;18.33;;;;;;;;;;4964831;29;20248;-82
2021/01/10 00:24:50;;;;;;;26.10;17.75;;;;;;;;;;4948387;29;20204;-84
2021/01/10 00:27:17;;;;;;;24.17;18.95;;;;;;;;;;4964909;28;20696;-82
2021/01/10 00:29:45;;;;;;;27.30;16.90;;;;;;;;;;4962260;29;20221;-81
2021/01/10 00:32:11;;;;;;;20.67;17.23;;;;;;;;;;4962973;29;20224;-81
2021/01/10 00:34:37;;;;;;;23.23;18.30;;;;;;;;;;4946478;28;20225;-80
2021/01/10 00:37:30;;;;;;;25.92;19.20;;;;;;;;;;4964039;29;20639;-79
2021/01/10 00:39:58;;;;;;;22.95;18.08;;;;;;;;;;4961219;29;20190;-80
2021/01/10 00:42:27;;;;;;;24.52;20.40;;;;;;;;;;4963280;29;20182;-80
2021/01/10 00:44:55;;;;;;;23.27;16.45;;;;;;;;;;4968636;28;20205;-80
2021/01/10 00:47:25;;;;;;;19.48;15.07;;;;;;;;;;4958032;28;20158;-82
2021/01/10 00:49:52;;;;;;;24.83;16.95;;;;;;;;;;4959209;29;20206;-81
2021/01/10 00:52:19;;;;;;;25.42;17.33;;;;;;;;;;4941825;28;20202;-81
2021/01/10 00:54:47;;;;;;;26.27;19.05;;;;;;;;;;4958826;28;20197;-81
2021/01/10 00:57:24;;;;;;;19.40;15.90;;;;;;;;;;4942508;28;20220;-81
2021/01/10 00:59:50;;;;;;;21.40;15.52;;;;;;;;;;4958929;29;20525;-81
2021/01/10 01:02:16;;;;;;;18.20;16.30;;;;;;;;;;4942509;28;20189;-80
2021/01/10 01:04:47;;;;;;;21.65;16.77;;;;;;;;;;4958202;28;20201;-81
2021/01/10 01:07:14;;;;;;;21.10;17.50;;;;;;;;;;4959570;28;20170;-81
2021/01/10 01:09:41;;;;;;;23.45;15.73;;;;;;;;;;4958850;28;20205;-79
2021/01/10 01:12:08;;;;;;;20.85;16.45;;;;;;;;;;4944116;28;20269;-79
2021/01/10 01:14:34;;;;;;;20.25;16.00;;;;;;;;;;4963366;28;20194;-79
2021/01/10 01:17:00;;;;;;;24.95;17.15;;;;;;;;;;4948675;28;20178;-80
2021/01/10 01:19:27;;;;;;;24.08;17.13;;;;;;;;;;4966314;29;20171;-78
2021/01/10 01:21:53;;;;;;;22.85;18.67;;;;;;;;;;4963583;29;20190;-80
2021/01/10 01:24:21;;;;;;;24.48;16.60;;;;;;;;;;4960347;29;20205;-80
2021/01/10 01:26:53;;;;;;;21.08;17.00;;;;;;;;;;4961256;29;20257;-81
2021/01/10 01:29:19;;;;;;;20.30;14.93;;;;;;;;;;4959519;29;20193;-81
2021/01/10 01:31:45;;;;;;;17.30;15.27;;;;;;;;;;4961652;29;20174;-80
2021/01/10 01:34:11;;;;;;;19.52;15.52;;;;;;;;;;4961367;29;20197;-79
2021/01/10 01:36:37;;;;;;;20.45;12.82;;;;;;;;;;4966111;29;20720;-80
2021/01/10 01:39:10;;;;;;;22.60;16.80;;;;;;;;;;4962212;28;20245;-82
2021/01/10 01:41:37;;;;;;;20.60;14.10;;;;;;;;;;4961922;29;20570;-80
2021/01/10 01:46:41;;;;;;;23.25;14.18;;;;;;;;;;4919963;29;20213;-82
2021/01/10 01:49:08;;;;;;;16.95;15.00;;;;;;;;;;4921631;29;20278;-82
2021/01/10 01:51:48;;;;;;;18.50;13.60;;;;;;;;;;4937026;29;20542;-83
2021/01/10 01:54:14;;;;;;;18.45;15.23;;;;;;;;;;4937738;29;20186;-82
2021/01/10 01:56:40;;;;;;;20.88;16.25;;;;;;;;;;4937915;29;20175;-82
2021/01/10 01:59:13;;;;;;;25.10;15.80;;;;;;;;;;4930544;29;20247;-80
2021/01/10 02:01:39;;;;;;;23.13;15.18;;;;;;;;;;4944081;28;20270;-82
2021/01/10 02:04:26;;;;;;;22.55;16.15;;;;;;;;;;4944778;29;20230;-82
2021/01/10 02:06:56;;;;;;;24.00;16.20;;;;;;;;;;4952746;28;20179;-84
2021/01/10 02:09:22;;;;;;;22.98;14.60;;;;;;;;;;4927480;29;20202;-83
2021/01/10 02:11:52;;;;;;;25.48;17.90;;;;;;;;;;4941589;29;20234;-82
2021/01/10 02:14:19;;;;;;;23.63;16.80;;;;;;;;;;4927641;29;20229;-80
2021/01/10 02:16:56;;;;;;;;;;;;;;;;;;;;;
2021/01/10 02:19:29;;;;;;;23.50;17.35;;;;;;;;;;4931123;29;20219;-82
2021/01/10 02:22:05;;;;;;;26.23;17.85;;;;;;;;;;4951951;29;20294;-81
2021/01/10 02:24:33;;;;;;;24.45;16.17;;;;;;;;;;4954866;29;20333;-81
2021/01/10 02:27:07;;;;;;;21.70;15.88;;;;;;;;;;4955528;29;20168;-78
2021/01/10 02:29:34;;;;;;;24.17;16.70;;;;;;;;;;4949788;29;20278;-82
2021/01/10 02:32:02;;;;;;;21.05;16.65;;;;;;;;;;4940076;29;20270;-83
2021/01/10 02:34:28;;;;;;;19.25;15.05;;;;;;;;;;4941094;29;20222;-83
2021/01/10 02:37:15;;;;;;;23.58;17.50;;;;;;;;;;4932539;29;20180;-81
2021/01/10 02:40:00;;;;;;;19.38;14.55;;;;;;;;;;4953087;29;20168;-82
2021/01/10 02:42:31;;;;;;;22.15;15.70;;;;;;;;;;4950210;29;20219;-79
2021/01/10 02:44:59;;;;;;;23.20;14.13;;;;;;;;;;4943415;29;20207;-82
2021/01/10 02:47:26;;;;;;;17.45;13.88;;;;;;;;;;4924560;29;20565;-82
2021/01/10 02:49:52;;;;;;;20.95;15.60;;;;;;;;;;4924538;29;20203;-83
2021/01/10 02:52:18;;;;;;;19.13;14.63;;;;;;;;;;4924550;29;20250;-82
2021/01/10 02:54:45;;;;;;;20.13;12.90;;;;;;;;;;4940103;29;20211;-80
2021/01/10 02:57:29;;;;;;;18.75;13.40;;;;;;;;;;4925278;29;20176;-82
2021/01/10 02:59:56;;;;;;;22.80;15.88;;;;;;;;;;4926024;29;20155;-80
2021/01/10 03:02:23;;;;;;;19.65;14.77;;;;;;;;;;4927549;29;20178;-82
2021/01/10 03:04:49;;;;;;;27.45;15.35;;;;;;;;;;4926946;29;20211;-81
2021/01/10 03:07:21;;;;;;;21.50;14.15;;;;;;;;;;4925956;29;20203;-82
2021/01/10 03:09:48;;;;;;;22.67;14.60;;;;;;;;;;4924125;29;20209;-83
2021/01/10 03:12:18;;;;;;;21.38;16.27;;;;;;;;;;4938090;29;20172;-83
2021/01/10 03:14:45;;;;;;;18.73;14.13;;;;;;;;;;4923567;29;20214;-83
2021/01/10 03:17:26;;;;;;;19.52;14.25;;;;;;;;;;4923293;29;20167;-82
2021/01/10 03:19:56;;;;;;;17.75;13.77;;;;;;;;;;4938963;29;20648;-82
2021/01/10 03:22:24;;;;;;;17.65;13.32;;;;;;;;;;4938982;29;20183;-83
2021/01/10 03:24:51;;;;;;;16.45;13.63;;;;;;;;;;4938882;29;20239;-82
2021/01/10 03:27:25;;;;;;;14.30;12.43;;;;;;;;;;4924667;29;20166;-83
2021/01/10 03:29:51;;;;;;;14.88;12.05;;;;;;;;;;4922873;29;20220;-82
2021/01/10 03:32:18;;;;;;;14.82;11.80;;;;;;;;;;4939399;29;20195;-81
2021/01/10 03:34:45;;;;;;;12.80;11.15;;;;;;;;;;4938817;29;20234;-79
2021/01/10 03:37:11;;;;;;;12.85;11.13;;;;;;;;;;4929164;29;20166;-80
2021/01/10 03:39:40;;;;;;;12.07;10.60;;;;;;;;;;4942459;29;20183;-81
2021/01/10 03:42:07;;;;;;;15.88;11.32;;;;;;;;;;4943163;29;20155;-81
2021/01/10 03:44:33;;;;;;;16.67;12.25;;;;;;;;;;4942964;29;20199;-82
2021/01/10 03:46:59;;;;;;;14.15;11.50;;;;;;;;;;4942468;29;20179;-81
2021/01/10 03:49:26;;;;;;;18.50;12.85;;;;;;;;;;4944012;29;20219;-82
2021/01/10 03:51:52;;;;;;;19.73;15.93;;;;;;;;;;4940232;29;20189;-83
2021/01/10 03:54:18;;;;;;;14.65;13.15;;;;;;;;;;4938644;29;20251;-82
2021/01/10 03:56:44;;;;;;;17.40;14.45;;;;;;;;;;4924182;29;20232;-82
2021/01/10 03:59:14;;;;;;;15.57;12.68;;;;;;;;;;4924089;29;20270;-82
2021/01/10 04:01:40;;;;;;;17.77;12.98;;;;;;;;;;4938192;29;20167;-82
2021/01/10 04:04:06;;;;;;;16.45;10.90;;;;;;;;;;4922652;29;20179;-82
2021/01/10 04:06:32;;;;;;;17.33;13.38;;;;;;;;;;4924214;29;20516;-83
2021/01/10 04:08:58;;;;;;;12.85;10.25;;;;;;;;;;4937995;29;20231;-81
2021/01/10 04:11:25;;;;;;;13.05;11.48;;;;;;;;;;4937368;29;20202;-81
2021/01/10 04:14:00;;;;;;;15.10;12.75;;;;;;;;;;4938565;29;20262;-82
2021/01/10 04:16:26;;;;;;;16.65;11.88;;;;;;;;;;4923719;29;20158;-83
2021/01/10 04:18:53;;;;;;;17.08;10.95;;;;;;;;;;4938941;29;20218;-82
2021/01/10 04:21:19;;;;;;;15.35;12.50;;;;;;;;;;4924302;29;20254;-82
2021/01/10 04:24:03;;;;;;;17.48;13.35;;;;;;;;;;4938352;29;20175;-81
2021/01/10 04:26:30;;;;;;;17.30;11.95;;;;;;;;;;4938813;29;20164;-83
2021/01/10 04:28:56;;;;;;;23.17;14.88;;;;;;;;;;4922116;29;20207;-83
2021/01/10 04:31:22;;;;;;;15.50;12.50;;;;;;;;;;4923568;29;20171;-83
2021/01/10 04:33:48;;;;;;;13.82;12.10;;;;;;;;;;4923098;29;20175;-82
2021/01/10 04:36:15;;;;;;;18.75;13.10;;;;;;;;;;4941781;29;20180;-80
2021/01/10 04:38:41;;;;;;;17.00;12.50;;;;;;;;;;4947543;29;20175;-81
2021/01/10 04:41:07;;;;;;;19.90;13.52;;;;;;;;;;4924009;29;20234;-81
2021/01/10 04:43:34;;;;;;;21.40;13.57;;;;;;;;;;4937428;29;20175;-82
2021/01/10 04:46:00;;;;;;;18.45;13.23;;;;;;;;;;4936743;29;20218;-81
2021/01/10 04:48:30;;;;;;;18.00;12.70;;;;;;;;;;4920519;29;20203;-81
2021/01/10 04:50:58;;;;;;;16.08;12.48;;;;;;;;;;4937129;29;20195;-82
2021/01/10 04:53:27;;;;;;;19.50;12.82;;;;;;;;;;4945382;29;20176;-82
2021/01/10 04:55:58;;;;;;;17.38;12.57;;;;;;;;;;4924966;29;20194;-81
2021/01/10 04:58:29;;;;;;;16.80;12.93;;;;;;;;;;4921299;29;20168;-82
2021/01/10 05:00:57;;;;;;;17.90;14.98;;;;;;;;;;4936663;29;20593;-82
2021/01/10 05:03:26;;;;;;;18.08;12.20;;;;;;;;;;4936575;29;20250;-81
2021/01/10 05:05:56;;;;;;;20.10;12.82;;;;;;;;;;4920913;29;20209;-80
2021/01/10 05:08:22;;;;;;;15.75;11.70;;;;;;;;;;4936975;29;20270;-81
2021/01/10 05:10:52;;;;;;;17.33;12.88;;;;;;;;;;4936616;29;20181;-82
2021/01/10 05:13:28;;;;;;;15.65;13.95;;;;;;;;;;4937729;29;20211;-81
2021/01/10 05:15:57;;;;;;;17.98;14.05;;;;;;;;;;4932566;28;20190;-81
2021/01/10 05:18:24;;;;;;;18.33;12.40;;;;;;;;;;4941480;29;20246;-81
2021/01/10 05:21:00;;;;;;;19.75;14.10;;;;;;;;;;4956651;28;20182;-80
2021/01/10 05:23:29;;;;;;;14.20;11.20;;;;;;;;;;4938841;29;20203;-82
2021/01/10 05:26:11;;;;;;;13.75;10.43;;;;;;;;;;4936676;29;20191;-83
2021/01/10 05:28:37;;;;;;;15.00;11.82;;;;;;;;;;4936742;29;20712;-83
2021/01/10 05:31:13;;;;;;;17.88;12.20;;;;;;;;;;4921083;29;20175;-81
2021/01/10 05:33:58;;;;;;;16.00;11.02;;;;;;;;;;4920933;29;20185;-82
2021/01/10 05:36:26;;;;;;;18.27;11.30;;;;;;;;;;4936932;29;20618;-83
2021/01/10 05:38:52;;;;;;;16.10;11.35;;;;;;;;;;4921384;29;20183;-83
2021/01/10 05:41:34;;;;;;;13.70;11.15;;;;;;;;;;4937071;29;20184;-81
2021/01/10 05:44:02;;;;;;;16.70;13.70;;;;;;;;;;4922521;29;20183;-80
2021/01/10 05:46:41;;;;;;;;;;;;;;;;;;;;;
2021/01/10 05:49:21;;;;;;;16.33;11.73;;;;;;;;;;4940592;29;20207;-83
2021/01/10 05:52:14;;;;;;;16.70;12.18;;;;;;;;;;4940644;29;20156;-83
2021/01/10 05:54:44;;;;;;;13.85;10.20;;;;;;;;;;4926176;29;20552;-81
2021/01/10 05:57:14;;;;;;;18.30;14.45;;;;;;;;;;4953343;29;20158;-81
2021/01/10 05:59:50;;;;;;;15.20;10.85;;;;;;;;;;4938890;29;20174;-80
2021/01/10 06:02:36;;;;;;;20.50;13.98;;;;;;;;;;4934216;29;20215;-82
2021/01/10 06:05:13;;;;;;;16.88;13.50;;;;;;;;;;4920379;29;20254;-82
2021/01/10 06:07:40;;;;;;;16.13;12.13;;;;;;;;;;4935490;29;20230;-82
2021/01/10 06:10:10;;;;;;;15.90;11.05;;;;;;;;;;4935340;29;20219;-83
2021/01/10 06:12:37;;;;;;;16.70;11.73;;;;;;;;;;4936403;29;20570;-82
2021/01/10 06:15:20;;;;;;;11.43;9.00;;;;;;;;;;4935131;29;20266;-80
2021/01/10 06:17:48;;;;;;;17.52;12.30;;;;;;;;;;4919930;29;20199;-81
2021/01/10 06:20:32;;;;;;;12.63;8.88;;;;;;;;;;4918839;29;20175;-82
2021/01/10 06:23:01;;;;;;;11.32;9.43;;;;;;;;;;4921140;29;20155;-82
2021/01/10 06:25:32;;;;;;;13.18;10.00;;;;;;;;;;4919518;29;20203;-83
2021/01/10 06:28:04;;;;;;;10.75;8.55;;;;;;;;;;4936559;29;20223;-82
2021/01/10 06:30:34;;;;;;;14.23;10.43;;;;;;;;;;4919710;29;20175;-82
2021/01/10 06:33:08;;;;;;;11.00;9.90;;;;;;;;;;4935601;29;20226;-82
2021/01/10 06:35:38;;;;;;;11.38;9.43;;;;;;;;;;4920115;29;20238;-79
2021/01/10 06:38:08;;;;;;;13.93;10.70;;;;;;;;;;4922180;29;20179;-81
2021/01/10 06:40:35;;;;;;;14.52;9.50;;;;;;;;;;4938778;29;20230;-81
2021/01/10 06:43:03;;;;;;;10.18;8.07;;;;;;;;;;4921898;29;20254;-81
2021/01/10 06:45:37;;;;;;;13.65;10.05;;;;;;;;;;4937292;29;20673;-82
2021/01/10 06:48:03;;;;;;;11.05;9.77;;;;;;;;;;4924378;29;20267;-83
2021/01/10 06:50:41;;;;;;;;;;;;;;;;;;;;;
2021/01/10 06:53:11;;;;;;;12.43;9.57;;;;;;;;;;4928072;29;20166;-80
2021/01/10 06:55:41;;;;;;;11.65;9.85;;;;;;;;;;5082093;23;21632;-77
2021/01/10 06:58:18;;;;;;;12.27;11.07;;;;;;;;;;4980953;28;20178;-82
2021/01/10 07:00:57;;;;;;;13.65;10.80;;;;;;;;;;4997706;28;20177;-83
2021/01/10 07:03:27;;;;;;;16.75;12.35;;;;;;;;;;4966893;29;20667;-83
2021/01/10 07:06:06;;;;;;;13.82;10.52;;;;;;;;;;4941948;29;20198;-84
2021/01/10 07:08:51;;;;;;;14.27;10.32;;;;;;;;;;4961486;29;20202;-80
2021/01/10 07:11:54;;;;;;;;;;;;;;;;;;;;;
2021/01/10 07:29:33;;;;;;;13.30;10.55;;;;;;;;;;4884009;29;20266;-82
2021/01/10 07:42:21;;;;;;;17.17;12.63;;;;;;;;;;1204974;23;21235;-82
2021/01/10 07:45:01;;;;;;;12.57;9.85;;;;;;;;;;4981563;28;20231;-81
2021/01/10 07:47:33;;;;;;;13.68;10.10;;;;;;;;;;4964397;28;20177;-80
2021/01/10 07:50:10;;;;;;;;;;;;;;;;;;;;;
2021/01/10 07:52:46;;;;;;;14.07;10.90;;;;;;;;;;4979350;28;20169;-81
2021/01/10 07:55:30;;;;;;;10.77;9.27;;;;;;;;;;5023417;23;20169;-82
2021/01/10 07:58:03;;;;;;;11.70;9.70;;;;;;;;;;4965535;28;20185;-81
2021/01/10 08:01:07;;;;;;;10.95;9.00;;;;;;;;;;4976707;28;20185;-81
2021/01/10 08:03:34;;;;;;;12.02;9.23;;;;;;;;;;4929524;28;20179;-81
2021/01/10 08:06:37;;;;;;;13.52;9.85;;;;;;;;;;4970480;28;20220;-81
2021/01/10 08:09:16;;;;;;;9.65;8.20;;;;;;;;;;4968350;28;20220;-81
2021/01/10 08:11:55;;;;;;;12.27;9.50;;;;;;;;;;4968854;28;20166;-82
2021/01/10 08:14:22;;;;;;;11.75;10.32;;;;;;;;;;4963201;28;20157;-82
2021/01/10 08:16:51;;;;;;;16.42;11.18;;;;;;;;;;4962702;28;20253;-81
2021/01/10 08:19:21;;;;;;;9.90;8.15;;;;;;;;;;4962367;28;20185;-81
2021/01/10 08:21:50;;;;;;;12.75;10.30;;;;;;;;;;4979599;28;20165;-81
2021/01/10 08:24:23;;;;;;;10.05;8.35;;;;;;;;;;4980158;28;20157;-81
2021/01/10 08:27:14;;;;;;;9.82;8.00;;;;;;;;;;4977570;28;20214;-83
2021/01/10 08:29:56;;;;;;;;;;;;;;;;;;;;;
2021/01/10 08:32:33;;;;;;;10.85;8.15;;;;;;;;;;4975625;28;20187;-84
2021/01/10 08:35:05;;;;;;;10.48;8.55;;;;;;;;;;4982469;28;20169;-82
2021/01/10 08:37:34;;;;;;;8.98;7.80;;;;;;;;;;4966726;28;20180;-83
2021/01/10 08:40:12;;;;;;;12.38;9.98;;;;;;;;;;4982340;28;20177;-83
2021/01/10 08:42:41;;;;;;;11.48;9.18;;;;;;;;;;4973172;28;20181;-82
2021/01/10 08:45:37;;;;;;;10.60;8.88;;;;;;;;;;4950940;28;20181;-80
2021/01/10 08:48:04;;;;;;;14.68;9.73;;;;;;;;;;4953574;28;20188;-81
2021/01/10 08:50:40;;;;;;;12.63;9.00;;;;;;;;;;4991120;28;20249;-81
2021/01/10 08:53:06;;;;;;;12.50;8.10;;;;;;;;;;4991857;28;20196;-82
2021/01/10 08:55:36;;;;;;;12.68;9.73;;;;;;;;;;4957006;28;20244;-82
2021/01/10 08:58:04;;;;;;;12.38;9.35;;;;;;;;;;4955929;28;20204;-83
2021/01/10 09:00:31;;;;;;;11.13;9.10;;;;;;;;;;4989547;28;20169;-83
2021/01/10 09:03:13;;;;;;;9.02;7.93;;;;;;;;;;4951468;28;20189;-82
2021/01/10 09:05:47;;;;;;;8.57;7.25;;;;;;;;;;4949176;28;20208;-81
2021/01/10 09:08:56;;;;;;;;;;;;;;;;;;;;;
2021/01/10 09:11:41;;;;;;;11.48;8.55;;;;;;;;;;4964170;28;20199;-79
2021/01/10 09:14:10;;;;;;;15.02;10.07;;;;;;;;;;4963932;28;20659;-81
2021/01/10 09:16:37;;;;;;;10.10;8.95;;;;;;;;;;4982309;28;20187;-82
2021/01/10 09:19:04;;;;;;;11.77;8.40;;;;;;;;;;4948674;28;20550;-82
2021/01/10 09:21:31;;;;;;;12.13;10.55;;;;;;;;;;4948777;28;20169;-82
2021/01/10 09:24:06;;;;;;;12.32;11.02;;;;;;;;;;4967996;28;20154;-80
2021/01/10 09:26:43;;;;;;;16.85;10.88;;;;;;;;;;4967625;28;20193;-83
2021/01/10 09:29:17;;;;;;;14.20;11.10;;;;;;;;;;4968650;28;20205;-80
2021/01/10 09:31:45;;;;;;;10.15;9.10;;;;;;;;;;4987181;28;20284;-81
2021/01/10 09:34:15;;;;;;;13.75;10.85;;;;;;;;;;4983221;28;20172;-79
2021/01/10 09:36:42;;;;;;;10.02;8.90;;;;;;;;;;4967548;28;20216;-80
2021/01/10 09:39:08;;;;;;;18.40;12.00;;;;;;;;;;4950738;28;20236;-80
2021/01/10 09:42:10;;;;;;;14.00;11.18;;;;;;;;;;4948771;28;20218;-81
2021/01/10 09:44:37;;;;;;;14.65;9.15;;;;;;;;;;4889513;29;20615;-80
2021/01/10 09:47:04;;;;;;;12.50;11.18;;;;;;;;;;4951006;28;20216;-80
2021/01/10 09:49:36;;;;;;;14.32;10.73;;;;;;;;;;4967478;28;20201;-84
2021/01/10 09:52:22;;;;;;;9.43;8.52;;;;;;;;;;4953231;28;20177;-84
2021/01/10 09:54:59;;;;;;;11.70;9.00;;;;;;;;;;4956843;28;20189;-83
2021/01/10 09:57:26;;;;;;;11.70;10.15;;;;;;;;;;4984095;28;20268;-81
2021/01/10 09:59:55;;;;;;;10.07;9.07;;;;;;;;;;4980832;28;20173;-80
2021/01/10 10:02:25;;;;;;;12.95;9.10;;;;;;;;;;4980786;28;20264;-82
2021/01/10 10:05:11;;;;;;;11.40;9.68;;;;;;;;;;4947752;28;20177;-82
2021/01/10 10:07:40;;;;;;;10.45;9.32;;;;;;;;;;4982153;28;20550;-81
2021/01/10 10:10:08;;;;;;;10.38;9.35;;;;;;;;;;4975082;28;20203;-84
2021/01/10 10:12:34;;;;;;;10.75;9.60;;;;;;;;;;4981248;28;20196;-83
2021/01/10 10:15:07;;;;;;;14.43;12.65;;;;;;;;;;4965363;28;20270;-83
2021/01/10 10:17:35;;;;;;;11.98;10.68;;;;;;;;;;4980395;28;20184;-82
2021/01/10 10:20:02;;;;;;;9.55;8.68;;;;;;;;;;4966933;28;20173;-83
2021/01/10 10:22:32;;;;;;;12.55;11.18;;;;;;;;;;4967950;28;20181;-82
2021/01/10 10:25:00;;;;;;;17.05;10.27;;;;;;;;;;4985246;28;20165;-81
2021/01/10 10:27:27;;;;;;;11.30;8.40;;;;;;;;;;4968269;28;20172;-82
2021/01/10 10:29:53;;;;;;;12.45;11.25;;;;;;;;;;4971004;28;20273;-84
2021/01/10 10:32:19;;;;;;;12.75;10.40;;;;;;;;;;4988360;28;20162;-84
2021/01/10 10:34:46;;;;;;;11.30;10.07;;;;;;;;;;4972499;28;20165;-81
2021/01/10 10:37:13;;;;;;;9.80;7.75;;;;;;;;;;4960118;28;20193;-81
2021/01/10 10:39:43;;;;;;;11.07;9.02;;;;;;;;;;4971984;28;20181;-82
2021/01/10 10:42:10;;;;;;;12.20;9.65;;;;;;;;;;4970323;28;20591;-82
2021/01/10 10:44:37;;;;;;;14.57;10.02;;;;;;;;;;4995123;28;20173;-82
2021/01/10 10:47:03;;;;;;;12.48;9.75;;;;;;;;;;4967210;28;20611;-84
2021/01/10 10:49:30;;;;;;;12.00;9.35;;;;;;;;;;4982627;28;20222;-83
2021/01/10 10:52:11;;;;;;;11.70;9.48;;;;;;;;;;4977796;28;20189;-82
2021/01/10 10:54:38;;;;;;;8.57;7.65;;;;;;;;;;4969573;28;20173;-83
2021/01/10 10:57:08;;;;;;;10.10;8.25;;;;;;;;;;4969361;28;20209;-83
2021/01/10 10:59:34;;;;;;;13.45;9.43;;;;;;;;;;4968475;28;20197;-85
2021/01/10 11:02:09;;;;;;;9.75;8.13;;;;;;;;;;4968548;28;20176;-83
2021/01/10 11:04:38;;;;;;;10.30;8.88;;;;;;;;;;4968168;28;20157;-81
2021/01/10 11:07:07;;;;;;;10.25;8.90;;;;;;;;;;4952100;28;20221;-82
2021/01/10 11:09:49;;;;;;;10.45;9.35;;;;;;;;;;4952215;28;20196;-83
2021/01/10 11:12:16;;;;;;;10.60;9.20;;;;;;;;;;4951452;28;20196;-83
2021/01/10 11:14:44;;;;;;;13.10;11.10;;;;;;;;;;4952112;28;20177;-82
2021/01/10 11:17:14;;;;;;;10.75;9.52;;;;;;;;;;4951479;28;20221;-83
2021/01/10 11:19:43;;;;;;;12.70;11.48;;;;;;;;;;4951735;28;20654;-82
2021/01/10 11:22:09;;;;;;;11.50;9.13;;;;;;;;;;4952202;28;20177;-82
2021/01/10 11:24:41;;;;;;;9.88;8.13;;;;;;;;;;4968865;28;20176;-81
2021/01/10 11:27:11;;;;;;;11.43;10.13;;;;;;;;;;4968767;28;20576;-84
2021/01/10 11:29:47;;;;;;;;;;;;;;;;;;;;;
2021/01/10 11:32:40;;;;;;;;;;;;;;;;;;;;;
2021/01/10 11:35:23;;;;;;;10.32;8.40;;;;;;;;;;4985700;28;20256;-84
2021/01/10 11:39:03;;;;;;;10.77;7.78;;;;;;;;;;4968891;28;20628;-83
2021/01/10 11:42:14;;;;;;;;;;;;;;;;;;;;;
2021/01/10 11:45:02;;;;;;;16.15;11.93;;;;;;;;;;4969022;28;20171;-82
2021/01/10 11:51:19;;;;;;;;;;;;;;;;;;;;;
2021/01/10 11:56:57;;;;;;;10.15;7.38;;;;;;;;;;4951220;28;20254;-84
2021/01/10 12:00:02;;;;;;;;;;;;;;;;;;;;;
2021/01/10 12:02:34;;;;;;;11.27;10.25;;;;;;;;;;4986082;28;20663;-84
2021/01/10 12:05:36;;;;;;;;;;;;;;;;;;;;;
2021/01/10 12:09:21;;;;;;;;;;;;;;;;;;;;;
2021/01/10 12:12:30;;;;;;;11.35;9.00;;;;;;;;;;4985942;28;20164;-83
2021/01/10 12:15:37;;;;;;;11.50;9.70;;;;;;;;;;4970646;28;20167;-83
2021/01/10 12:18:47;;;;;;;11.45;9.10;;;;;;;;;;4971487;28;20343;-83
2021/01/10 12:21:22;;;;;;;10.13;9.07;;;;;;;;;;4951444;28;20220;-83
2021/01/10 12:24:15;;;;;;;14.20;9.65;;;;;;;;;;4932185;29;20175;-84
2021/01/10 12:26:47;;;;;;;8.40;7.60;;;;;;;;;;4928784;29;20194;-83
2021/01/10 12:29:29;;;;;;;;;;;;;;;;;;;;;
2021/01/10 12:32:22;;;;;;;10.65;8.57;;;;;;;;;;4943852;29;20203;-85
2021/01/10 12:35:05;;;;;;;;;;;;;;;;;;;;;
2021/01/10 12:37:48;;;;;;;10.52;8.95;;;;;;;;;;4945300;29;20261;-83
2021/01/10 12:40:18;;;;;;;8.88;7.97;;;;;;;;;;4928328;29;20285;-84
2021/01/10 12:46:15;;;;;;;9.88;8.23;;;;;;;;;;4962884;28;20213;-83
2021/01/10 12:53:10;;;;;;;;;;;;;;;;;;;;;
2021/01/10 12:55:51;;;;;;;12.15;10.90;;;;;;;;;;4943525;29;20661;-84
2021/01/10 12:58:54;;;;;;;;;;;;;;;;;;;;;
2021/01/10 13:01:28;;;;;;;7.60;6.63;;;;;;;;;;4967663;28;20184;-83
2021/01/10 13:04:08;;;;;;;11.38;7.97;;;;;;;;;;4972377;28;20177;-83
2021/01/10 13:07:29;;;;;;;11.90;8.85;;;;;;;;;;4970916;28;20181;-84
2021/01/10 13:10:37;;;;;;;;;;;;;;;;;;;;;
2021/01/10 13:16:36;;;;;;;9.82;8.63;;;;;;;;;;4983567;28;20269;-84
2021/01/10 13:19:41;;;;;;;;;;;;;;;;;;;;;
2021/01/10 13:22:32;;;;;;;9.25;8.43;;;;;;;;;;4992281;28;20196;-83
2021/01/10 13:25:12;;;;;;;10.40;8.52;;;;;;;;;;4963554;28;20189;-85
2021/01/10 13:28:06;;;;;;;10.35;7.80;;;;;;;;;;4982397;28;20212;-85
2021/01/10 13:30:58;;;;;;;11.70;8.65;;;;;;;;;;4963633;28;20204;-85
2021/01/10 13:33:38;;;;;;;;;;;;;;;;;;;;;
2021/01/10 13:36:30;;;;;;;11.00;9.95;;;;;;;;;;4976495;28;20236;-83
2021/01/10 13:39:16;;;;;;;;;;;;;;;;;;;;;
2021/01/10 13:42:07;;;;;;;12.18;8.02;;;;;;;;;;4988485;28;20182;-85
2021/01/10 13:45:04;;;;;;;13.95;10.50;;;;;;;;;;4957630;28;20179;-84
2021/01/10 13:48:03;;;;;;;10.68;9.10;;;;;;;;;;5306856;23;20256;-85
2021/01/10 13:51:29;;;;;;;;;;;;;;;;;;;;;
2021/01/10 13:54:57;;;;;;;;;;;;;;;;;;;;;
2021/01/10 13:58:34;;;;;;;;;;;;;;;;;;;;;
2021/01/10 15:25:57;;;;;;;18.10;15.48;;;;;;;;;;4711307;26;20225;-80
2021/01/10 15:28:31;;;;;;;18.52;14.45;;;;;;;;;;4949540;29;20177;-82
2021/01/10 15:31:04;;;;;;;24.25;18.73;;;;;;;;;;4951011;29;20229;-82
2021/01/10 15:33:43;;;;;;;;;;;;;;;;;;;;;
2021/01/10 15:36:11;;;;;;;24.38;17.85;;;;;;;;;;4963941;28;20174;-83
2021/01/10 15:39:33;;;;;;;21.10;16.33;;;;;;;;;;4962696;29;20235;-79
2021/01/10 15:41:45;;;;;;;25.20;17.95;;;;;;;;;;4957550;29;20246;-84
2021/01/10 15:44:21;;;;;;;19.98;16.08;;;;;;;;;;4968395;28;20209;-83
2021/01/10 15:46:51;;;;;;;24.23;14.85;;;;;;;;;;4965815;29;20196;-84
2021/01/10 15:49:20;;;;;;;30.48;19.73;;;;;;;;;;4965625;29;20205;-82
2021/01/10 15:51:46;;;;;;;30.02;18.75;;;;;;;;;;4948069;29;20198;-82
2021/01/10 15:54:40;;;;;;;;;;;;;;;;;;;;;
2021/01/10 15:57:07;;;;;;;20.55;15.93;;;;;;;;;;4966822;29;20173;-82
2021/01/10 15:59:33;;;;;;;21.75;15.77;;;;;;;;;;4962771;29;20206;-80
2021/01/10 16:02:01;;;;;;;19.77;16.45;;;;;;;;;;4967279;29;20217;-84
2021/01/10 16:04:27;;;;;;;23.02;17.15;;;;;;;;;;4994075;23;20236;-81
2021/01/10 16:06:53;;;;;;;21.77;16.80;;;;;;;;;;4965767;28;20161;-82
2021/01/10 16:09:19;;;;;;;26.50;20.77;;;;;;;;;;4968042;28;20259;-83
2021/01/10 16:11:46;;;;;;;22.58;19.35;;;;;;;;;;4971569;28;20185;-83
2021/01/10 16:14:12;;;;;;;22.48;17.08;;;;;;;;;;4976860;28;20193;-82
2021/01/10 16:16:39;;;;;;;27.60;21.27;;;;;;;;;;4969001;28;20173;-84
2021/01/10 16:19:06;;;;;;;22.15;16.35;;;;;;;;;;5000287;23;20671;-83
2021/01/10 16:21:35;;;;;;;21.20;17.58;;;;;;;;;;4954731;28;20169;-84
2021/01/10 16:24:31;;;;;;;;;;;;;;;;;;;;;
2021/01/10 16:27:30;;;;;;;25.80;19.08;;;;;;;;;;4934365;29;20227;-81
2021/01/10 16:29:57;;;;;;;24.05;17.80;;;;;;;;;;4932015;29;20218;-83
2021/01/10 16:32:26;;;;;;;24.17;21.00;;;;;;;;;;4894168;29;20685;-81
2021/01/10 16:34:55;;;;;;;30.30;23.55;;;;;;;;;;4910494;29;20243;-81
2021/01/10 16:37:29;;;;;;;30.60;20.50;;;;;;;;;;4925426;29;20204;-82
2021/01/10 16:40:01;;;;;;;24.20;21.73;;;;;;;;;;4908225;29;20226;-82
2021/01/10 16:42:27;;;;;;;28.63;23.08;;;;;;;;;;4925735;29;20192;-81
2021/01/10 16:44:54;;;;;;;24.08;19.30;;;;;;;;;;4923489;29;20658;-83
2021/01/10 16:47:32;;;;;;;26.52;20.40;;;;;;;;;;4923422;29;20236;-83
2021/01/10 16:49:58;;;;;;;30.90;20.90;;;;;;;;;;4904911;29;20633;-81
2021/01/10 16:52:27;;;;;;;31.50;22.48;;;;;;;;;;4891059;29;20179;-82
2021/01/10 16:54:54;;;;;;;28.45;22.65;;;;;;;;;;4921842;29;20618;-81
2021/01/10 16:57:20;;;;;;;26.27;21.75;;;;;;;;;;4904043;29;20167;-83
2021/01/10 16:59:46;;;;;;;26.10;19.67;;;;;;;;;;4961532;28;20546;-82
2021/01/10 17:02:23;;;;;;;23.77;20.73;;;;;;;;;;4962923;29;20214;-83
2021/01/10 17:04:52;;;;;;;31.00;22.02;;;;;;;;;;4950733;29;20188;-84
2021/01/10 17:07:19;;;;;;;32.72;22.50;;;;;;;;;;4948229;29;20696;-82
2021/01/10 17:09:48;;;;;;;24.38;19.67;;;;;;;;;;4960689;28;20201;-80
2021/01/10 17:12:31;;;;;;;31.55;22.83;;;;;;;;;;4961303;29;20205;-81
2021/01/10 17:15:11;;;;;;;29.25;20.17;;;;;;;;;;4960800;29;20170;-82
2021/01/10 17:17:42;;;;;;;25.70;20.50;;;;;;;;;;4960640;29;20193;-84
2021/01/10 17:20:16;;;;;;;30.98;22.02;;;;;;;;;;4959694;29;20300;-82
2021/01/10 17:22:45;;;;;;;28.13;22.05;;;;;;;;;;4944981;29;20236;-82
2021/01/10 17:25:12;;;;;;;28.65;19.40;;;;;;;;;;4946879;29;20174;-84
2021/01/10 17:27:39;;;;;;;26.92;20.80;;;;;;;;;;4947686;29;20174;-84
2021/01/10 17:30:21;;;;;;;26.55;20.52;;;;;;;;;;4962817;28;20723;-83
2021/01/10 17:32:51;;;;;;;25.48;19.05;;;;;;;;;;4963213;29;20209;-82
2021/01/10 17:35:20;;;;;;;25.42;21.40;;;;;;;;;;4947333;29;20240;-82
2021/01/10 17:37:58;;;;;;;34.38;23.90;;;;;;;;;;4970457;29;20198;-83
2021/01/10 17:40:47;;;;;;;33.28;22.33;;;;;;;;;;4970011;29;20235;-83